sensor_id;sensor_type;location;lat;lon;timestamp;P1;durP1;ratioP1;P2;durP2;ratioP2
51448;SDS011;37520;46.570;14.268;2022-07-29T00:04:48;4.25;;;2.30;;
51448;SDS011;37520;46.570;14.268;2022-07-29T00:14:49;4.75;;;2.70;;
51448;SDS011;37520;46.570;14.268;2022-07-29T00:24:51;6.20;;;2.97;;
51448;SDS011;37520;46.570;14.268;2022-07-29T00:34:53;4.50;;;2.78;;
51448;SDS011;37520;46.570;14.268;2022-07-29T00:45:14;5.32;;;2.80;;
51448;SDS011;37520;46.570;14.268;2022-07-29T00:55:16;5.20;;;2.95;;
51448;SDS011;37520;46.570;14.268;2022-07-29T01:05:21;5.57;;;2.97;;
51448;SDS011;37520;46.570;14.268;2022-07-29T01:15:25;5.07;;;2.67;;
51448;SDS011;37520;46.570;14.268;2022-07-29T01:36:22;5.47;;;2.92;;
51448;SDS011;37520;46.570;14.268;2022-07-29T01:46:31;5.90;;;3.05;;
51448;SDS011;37520;46.570;14.268;2022-07-29T01:56:39;5.07;;;2.85;;
51448;SDS011;37520;46.570;14.268;2022-07-29T02:06:43;6.18;;;2.50;;
51448;SDS011;37520;46.570;14.268;2022-07-29T02:16:47;4.65;;;2.55;;
51448;SDS011;37520;46.570;14.268;2022-07-29T02:26:52;5.65;;;2.95;;
51448;SDS011;37520;46.570;14.268;2022-07-29T02:36:56;5.93;;;2.72;;
51448;SDS011;37520;46.570;14.268;2022-07-29T02:57:04;5.43;;;2.53;;
51448;SDS011;37520;46.570;14.268;2022-07-29T03:07:13;4.97;;;2.70;;
51448;SDS011;37520;46.570;14.268;2022-07-29T03:17:16;4.50;;;2.88;;
51448;SDS011;37520;46.570;14.268;2022-07-29T03:27:19;5.60;;;2.90;;
51448;SDS011;37520;46.570;14.268;2022-07-29T03:37:21;4.60;;;2.83;;
51448;SDS011;37520;46.570;14.268;2022-07-29T03:47:23;5.30;;;3.00;;
51448;SDS011;37520;46.570;14.268;2022-07-29T03:57:28;5.95;;;3.03;;
51448;SDS011;37520;46.570;14.268;2022-07-29T04:07:32;4.85;;;3.10;;
51448;SDS011;37520;46.570;14.268;2022-07-29T04:17:33;4.88;;;3.10;;
51448;SDS011;37520;46.570;14.268;2022-07-29T04:27:34;8.05;;;3.00;;
51448;SDS011;37520;46.570;14.268;2022-07-29T04:37:35;5.32;;;3.08;;
51448;SDS011;37520;46.570;14.268;2022-07-29T04:47:37;7.55;;;3.17;;
51448;SDS011;37520;46.570;14.268;2022-07-29T04:57:38;4.85;;;3.00;;
51448;SDS011;37520;46.570;14.268;2022-07-29T05:07:39;4.50;;;2.67;;
51448;SDS011;37520;46.570;14.268;2022-07-29T05:17:40;4.55;;;3.00;;
51448;SDS011;37520;46.570;14.268;2022-07-29T05:27:42;4.40;;;2.70;;
51448;SDS011;37520;46.570;14.268;2022-07-29T05:37:43;5.00;;;3.03;;
51448;SDS011;37520;46.570;14.268;2022-07-29T05:47:44;4.18;;;2.50;;
51448;SDS011;37520;46.570;14.268;2022-07-29T05:57:46;4.35;;;2.30;;
51448;SDS011;37520;46.570;14.268;2022-07-29T06:07:47;5.13;;;2.28;;
51448;SDS011;37520;46.570;14.268;2022-07-29T06:17:48;4.57;;;2.40;;
51448;SDS011;37520;46.570;14.268;2022-07-29T06:27:50;5.55;;;2.70;;
51448;SDS011;37520;46.570;14.268;2022-07-29T06:37:51;6.03;;;2.70;;
51448;SDS011;37520;46.570;14.268;2022-07-29T06:47:53;4.45;;;2.50;;
51448;SDS011;37520;46.570;14.268;2022-07-29T06:57:54;4.35;;;2.50;;
51448;SDS011;37520;46.570;14.268;2022-07-29T07:07:55;4.38;;;2.45;;
51448;SDS011;37520;46.570;14.268;2022-07-29T07:17:56;7.15;;;2.40;;
51448;SDS011;37520;46.570;14.268;2022-07-29T07:28:01;3.30;;;2.10;;
51448;SDS011;37520;46.570;14.268;2022-07-29T07:38:04;4.00;;;2.50;;
51448;SDS011;37520;46.570;14.268;2022-07-29T07:48:06;4.38;;;2.47;;
51448;SDS011;37520;46.570;14.268;2022-07-29T07:58:10;4.10;;;2.50;;
51448;SDS011;37520;46.570;14.268;2022-07-29T08:08:12;3.33;;;2.10;;
51448;SDS011;37520;46.570;14.268;2022-07-29T08:18:13;3.95;;;2.17;;
51448;SDS011;37520;46.570;14.268;2022-07-29T08:28:14;3.63;;;1.90;;
51448;SDS011;37520;46.570;14.268;2022-07-29T08:38:16;3.63;;;2.08;;
51448;SDS011;37520;46.570;14.268;2022-07-29T08:48:18;3.42;;;1.70;;
51448;SDS011;37520;46.570;14.268;2022-07-29T08:58:21;3.83;;;1.98;;
51448;SDS011;37520;46.570;14.268;2022-07-29T09:08:24;2.80;;;1.60;;
51448;SDS011;37520;46.570;14.268;2022-07-29T09:18:35;5.68;;;1.90;;
51448;SDS011;37520;46.570;14.268;2022-07-29T09:28:41;3.72;;;2.10;;
51448;SDS011;37520;46.570;14.268;2022-07-29T09:38:43;3.90;;;1.80;;
51448;SDS011;37520;46.570;14.268;2022-07-29T09:49:09;4.10;;;1.95;;
51448;SDS011;37520;46.570;14.268;2022-07-29T09:59:12;3.08;;;1.73;;
51448;SDS011;37520;46.570;14.268;2022-07-29T10:09:13;3.30;;;1.90;;
51448;SDS011;37520;46.570;14.268;2022-07-29T10:19:14;3.40;;;1.90;;
51448;SDS011;37520;46.570;14.268;2022-07-29T10:29:16;3.38;;;2.10;;
51448;SDS011;37520;46.570;14.268;2022-07-29T10:49:56;3.60;;;2.33;;
51448;SDS011;37520;46.570;14.268;2022-07-29T11:30:46;3.70;;;2.20;;
51448;SDS011;37520;46.570;14.268;2022-07-29T11:51:26;4.40;;;2.45;;
51448;SDS011;37520;46.570;14.268;2022-07-29T12:01:28;4.10;;;2.30;;
51448;SDS011;37520;46.570;14.268;2022-07-29T12:11:30;5.30;;;2.58;;
51448;SDS011;37520;46.570;14.268;2022-07-29T12:22:05;3.53;;;2.33;;
51448;SDS011;37520;46.570;14.268;2022-07-29T12:32:02;3.67;;;2.25;;
51448;SDS011;37520;46.570;14.268;2022-07-29T12:42:10;3.78;;;2.35;;
51448;SDS011;37520;46.570;14.268;2022-07-29T12:52:26;4.80;;;2.50;;
51448;SDS011;37520;46.570;14.268;2022-07-29T13:02:31;3.75;;;2.60;;
51448;SDS011;37520;46.570;14.268;2022-07-29T13:12:33;4.03;;;2.28;;
51448;SDS011;37520;46.570;14.268;2022-07-29T13:22:38;4.07;;;2.63;;
51448;SDS011;37520;46.570;14.268;2022-07-29T13:32:40;5.18;;;2.33;;
51448;SDS011;37520;46.570;14.268;2022-07-29T13:42:42;5.63;;;2.50;;
51448;SDS011;37520;46.570;14.268;2022-07-29T13:52:43;3.80;;;2.60;;
51448;SDS011;37520;46.570;14.268;2022-07-29T14:02:44;4.53;;;2.45;;
51448;SDS011;37520;46.570;14.268;2022-07-29T14:12:47;4.88;;;2.80;;
51448;SDS011;37520;46.570;14.268;2022-07-29T14:22:49;5.60;;;2.70;;
51448;SDS011;37520;46.570;14.268;2022-07-29T14:32:50;4.00;;;2.75;;
51448;SDS011;37520;46.570;14.268;2022-07-29T14:42:51;5.40;;;2.75;;
51448;SDS011;37520;46.570;14.268;2022-07-29T14:52:52;4.35;;;2.63;;
51448;SDS011;37520;46.570;14.268;2022-07-29T15:02:54;7.13;;;2.53;;
51448;SDS011;37520;46.570;14.268;2022-07-29T15:12:55;4.18;;;2.63;;
51448;SDS011;37520;46.570;14.268;2022-07-29T15:22:58;4.40;;;2.50;;
51448;SDS011;37520;46.570;14.268;2022-07-29T15:33:00;3.97;;;2.65;;
51448;SDS011;37520;46.570;14.268;2022-07-29T15:43:05;4.43;;;2.80;;
51448;SDS011;37520;46.570;14.268;2022-07-29T15:53:06;4.38;;;2.78;;
51448;SDS011;37520;46.570;14.268;2022-07-29T16:03:08;6.03;;;2.90;;
51448;SDS011;37520;46.570;14.268;2022-07-29T16:13:09;5.07;;;2.85;;
51448;SDS011;37520;46.570;14.268;2022-07-29T16:23:10;4.25;;;2.80;;
51448;SDS011;37520;46.570;14.268;2022-07-29T16:33:12;4.70;;;3.38;;
51448;SDS011;37520;46.570;14.268;2022-07-29T16:43:13;5.03;;;3.10;;
51448;SDS011;37520;46.570;14.268;2022-07-29T16:53:14;8.75;;;3.00;;
51448;SDS011;37520;46.570;14.268;2022-07-29T17:03:15;8.85;;;3.45;;
51448;SDS011;37520;46.570;14.268;2022-07-29T17:13:17;10.60;;;5.28;;
51448;SDS011;37520;46.570;14.268;2022-07-29T17:23:18;11.50;;;5.40;;
51448;SDS011;37520;46.570;14.268;2022-07-29T17:33:19;7.68;;;4.40;;
51448;SDS011;37520;46.570;14.268;2022-07-29T17:43:20;8.77;;;5.20;;
51448;SDS011;37520;46.570;14.268;2022-07-29T17:53:21;7.32;;;4.68;;
51448;SDS011;37520;46.570;14.268;2022-07-29T18:03:23;9.07;;;4.40;;
51448;SDS011;37520;46.570;14.268;2022-07-29T18:13:24;8.00;;;4.82;;
51448;SDS011;37520;46.570;14.268;2022-07-29T18:23:26;11.30;;;4.68;;
51448;SDS011;37520;46.570;14.268;2022-07-29T18:33:29;5.63;;;3.67;;
51448;SDS011;37520;46.570;14.268;2022-07-29T18:43:32;5.38;;;2.75;;
51448;SDS011;37520;46.570;14.268;2022-07-29T18:53:33;4.22;;;2.17;;
51448;SDS011;37520;46.570;14.268;2022-07-29T19:03:34;3.72;;;1.83;;
51448;SDS011;37520;46.570;14.268;2022-07-29T19:13:36;4.53;;;1.80;;
51448;SDS011;37520;46.570;14.268;2022-07-29T19:23:37;3.25;;;1.55;;
51448;SDS011;37520;46.570;14.268;2022-07-29T19:33:39;3.72;;;1.80;;
51448;SDS011;37520;46.570;14.268;2022-07-29T19:43:40;3.97;;;2.08;;
51448;SDS011;37520;46.570;14.268;2022-07-29T19:53:41;4.88;;;3.33;;
51448;SDS011;37520;46.570;14.268;2022-07-29T20:03:42;5.72;;;3.38;;
51448;SDS011;37520;46.570;14.268;2022-07-29T20:13:44;6.13;;;3.90;;
51448;SDS011;37520;46.570;14.268;2022-07-29T20:23:45;5.38;;;3.53;;
51448;SDS011;37520;46.570;14.268;2022-07-29T20:33:47;7.97;;;3.67;;
51448;SDS011;37520;46.570;14.268;2022-07-29T20:43:48;5.72;;;3.60;;
51448;SDS011;37520;46.570;14.268;2022-07-29T20:53:50;7.22;;;3.50;;
51448;SDS011;37520;46.570;14.268;2022-07-29T21:03:51;8.55;;;3.70;;
51448;SDS011;37520;46.570;14.268;2022-07-29T21:13:52;7.85;;;3.25;;
51448;SDS011;37520;46.570;14.268;2022-07-29T21:23:53;4.50;;;2.80;;
51448;SDS011;37520;46.570;14.268;2022-07-29T21:33:55;7.55;;;3.15;;
51448;SDS011;37520;46.570;14.268;2022-07-29T21:43:56;4.47;;;2.53;;
51448;SDS011;37520;46.570;14.268;2022-07-29T21:53:57;5.45;;;3.03;;
51448;SDS011;37520;46.570;14.268;2022-07-29T22:03:58;4.90;;;2.75;;
51448;SDS011;37520;46.570;14.268;2022-07-29T22:14:00;8.27;;;2.70;;
51448;SDS011;37520;46.570;14.268;2022-07-29T22:24:01;4.22;;;2.58;;
51448;SDS011;37520;46.570;14.268;2022-07-29T22:34:02;6.47;;;2.88;;
51448;SDS011;37520;46.570;14.268;2022-07-29T22:55:03;5.78;;;3.10;;
51448;SDS011;37520;46.570;14.268;2022-07-29T23:05:04;7.40;;;2.72;;
51448;SDS011;37520;46.570;14.268;2022-07-29T23:15:06;5.78;;;2.75;;
51448;SDS011;37520;46.570;14.268;2022-07-29T23:25:07;6.40;;;4.30;;
51448;SDS011;37520;46.570;14.268;2022-07-29T23:35:09;5.95;;;3.42;;
51448;SDS011;37520;46.570;14.268;2022-07-29T23:45:11;6.07;;;3.55;;
51448;SDS011;37520;46.570;14.268;2022-07-29T23:55:13;7.10;;;3.90;;
